Data for 10/12/2010

Time Sea-Level Adjusted Pressure Absolute Pressure Temperature Relative Humidity Dew Point   
(mb) (inHg) (mb) (inHg) (C) (F) (%) (C) (F)
00:05 1028 30.36 858 25.34 1.7 35.1 74 -2.4 27.7
00:10 1029 30.39 858 25.34 1.4 34.6 73 -2.8 27
00:15 1029 30.39 858 25.34 1.6 34.9 73 -2.7 27.1
00:20 1029 30.39 858 25.34 1.8 35.2 72 -2.8 27
00:25 1028 30.36 858 25.34 1.6 34.8 71 -3.1 26.4
00:30 1028 30.36 858 25.34 1.5 34.6 72 -3 26.5
00:35 1029 30.39 858 25.34 1.3 34.3 73 -2.9 26.7
00:40 1029 30.39 858 25.34 0.8 33.4 78 -2.6 27.4
00:45 1029 30.39 858 25.34 0.5 32.9 77 -3 26.6
00:50 1029 30.39 858 25.34 0.9 33.6 74 -3.3 26.1
00:55 1029 30.39 858 25.34 1.2 34.2 74 -2.9 26.8
01:00 1029 30.39 858 25.34 0.8 33.5 77 -2.7 27.1
01:05 1029 30.39 858 25.34 0.4 32.6 78 -3 26.6
01:10 1029 30.39 858 25.34 0.6 33.1 76 -3.1 26.3
01:15 1029 30.39 858 25.34 0.7 33.3 74 -3.4 25.9
01:20 1029 30.39 858 25.34 0.9 33.6 75 -3.1 26.4
01:25 1029 30.39 858 25.34 1 33.8 73 -3.4 25.9
01:30 1029 30.39 858 25.34 1.1 34 72 -3.4 25.9
01:35 1029 30.39 858 25.34 1.1 34 72 -3.3 26
01:40 1029 30.39 858 25.34 0.9 33.7 74 -3.3 26.1
01:45 1029 30.39 858 25.34 0.8 33.4 75 -3.1 26.4
01:50 1029 30.39 858 25.34 0.8 33.4 74 -3.4 25.8
01:55 1029 30.39 858 25.34 0.5 33 76 -3.3 26.1
02:00 1029 30.39 858 25.34 0.4 32.8 76 -3.4 25.9
02:05 1029 30.39 858 25.34 0.5 32.9 75 -3.4 25.9
02:10 1029 30.39 858 25.34 0.6 33 76 -3.2 26.2
02:15 1029 30.39 858 25.34 0.5 33 75 -3.4 25.9
02:20 1029 30.39 858 25.34 0.6 33.1 75 -3.3 26
02:25 1029 30.39 858 25.34 0.5 33 75 -3.3 26
02:30 1029 30.39 858 25.34 0.6 33 76 -3.2 26.2
02:35 1029 30.39 858 25.34 0.6 33 76 -3.2 26.2
02:40 1029 30.39 858 25.34 0.7 33.3 73 -3.5 25.6
02:45 1029 30.39 858 25.34 0.8 33.5 73 -3.5 25.7
02:50 1029 30.39 858 25.34 0.7 33.2 74 -3.4 25.9
02:55 1029 30.39 858 25.34 0.6 33.1 74 -3.5 25.7
03:00 1029 30.39 858 25.34 0.8 33.4 73 -3.4 25.8
03:05 1029 30.39 858 25.34 0.7 33.3 74 -3.4 25.8
03:10 1029 30.39 858 25.34 0.6 33.1 74 -3.4 25.8
03:15 1029 30.39 858 25.34 0.5 32.9 75 -3.5 25.8
03:20 1029 30.39 858 25.34 0.6 33.1 75 -3.4 25.9
03:25 1029 30.39 858 25.34 0.7 33.3 74 -3.4 25.9
03:30 1029 30.39 858 25.34 0.7 33.3 74 -3.5 25.8
03:35 1029 30.39 858 25.34 0.5 32.9 75 -3.4 25.9
03:40 1029 30.39 858 25.34 0.3 32.5 76 -3.5 25.8
03:45 1029 30.39 858 25.34 0.2 32.4 76 -3.6 25.6
03:50 1029 30.39 858 25.34 0.3 32.6 76 -3.5 25.7
03:55 1029 30.39 858 25.34 0.3 32.6 75 -3.5 25.7
04:00 1029 30.39 858 25.34 0.2 32.3 76 -3.5 25.7
04:05 1029 30.39 858 25.34 -0 31.9 78 -3.5 25.7
04:10 1029 30.39 858 25.34 -0.3 31.4 79 -3.6 25.6
04:15 1029 30.39 858 25.34 -0.5 31.2 80 -3.6 25.6
04:20 1029 30.39 858 25.34 -0.3 31.4 79 -3.6 25.5
04:25 1029 30.39 858 25.34 -0.3 31.4 79 -3.6 25.5
04:30 1029 30.39 858 25.34 -0.4 31.3 79 -3.6 25.4
04:35 1029 30.39 859 25.37 -0.3 31.5 78 -3.7 25.4
04:40 1030 30.42 859 25.37 -0.2 31.6 78 -3.6 25.5
04:45 1030 30.42 859 25.37 -0.5 31.2 78 -3.8 25.2
04:50 1030 30.42 859 25.37 -0.3 31.4 78 -3.7 25.4
04:55 1030 30.42 859 25.37 -0.5 31.1 77 -4 24.9
05:00 1030 30.42 859 25.37 -0.7 30.7 77 -4.2 24.4
05:05 1030 30.42 859 25.37 -0.8 30.6 77 -4.4 24.1
05:10 1030 30.42 859 25.37 -0.5 31 78 -4 24.8
05:15 1030 30.42 859 25.37 -0.5 31.1 76 -4.3 24.3
05:20 1030 30.42 859 25.37 -0.3 31.4 75 -4.3 24.2
05:25 1030 30.42 859 25.37 -0.2 31.6 75 -4.1 24.7
05:30 1030 30.42 859 25.37 -0.2 31.7 74 -4.2 24.4
05:35 1030 30.42 859 25.37 0 32 73 -4.2 24.5
05:40 1030 30.42 859 25.37 -0.1 31.9 75 -3.9 25
05:45 1030 30.42 859 25.37 -0.3 31.5 75 -4.1 24.6
05:50 1029 30.39 859 25.37 -0.3 31.4 75 -4.3 24.3
05:55 1029 30.39 859 25.37 -0.1 31.7 74 -4.3 24.3
06:00 1029 30.39 859 25.37 -0.1 31.8 74 -4.2 24.5
06:05 1029 30.39 858 25.34 -0.1 31.9 74 -4.2 24.4
06:10 1029 30.39 858 25.34 -0.1 31.8 74 -4.2 24.5
06:15 1029 30.39 858 25.34 -0.2 31.7 74 -4.2 24.5
06:20 1029 30.39 858 25.34 -0.3 31.5 75 -4.2 24.5
06:25 1029 30.39 858 25.34 -0.3 31.5 75 -4.2 24.4
06:30 1029 30.39 858 25.34 -0.3 31.5 74 -4.3 24.2
06:35 1029 30.39 858 25.34 -0.1 31.9 72 -4.6 23.8
06:40 1029 30.39 858 25.34 0 32.1 73 -4.2 24.5
06:45 1029 30.39 858 25.34 -0.6 30.9 76 -4.4 24.1
06:50 1029 30.39 858 25.34 -0.7 30.7 74 -4.7 23.5
06:55 1029 30.39 858 25.34 -0.9 30.5 75 -4.7 23.6
07:00 1028 30.36 858 25.34 -0.8 30.5 74 -4.8 23.3
07:05 1028 30.36 858 25.34 -0.8 30.5 75 -4.7 23.5
07:10 1028 30.36 858 25.34 -0.9 30.4 74 -4.9 23.2
07:15 1028 30.36 858 25.34 -0.6 31 73 -4.9 23.3
07:20 1029 30.39 858 25.34 -0.6 31 73 -4.9 23.3
07:25 1029 30.39 858 25.34 -0.5 31.1 72 -4.9 23.2
07:30 1029 30.39 858 25.34 -0.5 31 72 -4.9 23.1
07:35 1029 30.39 858 25.34 -0.5 31.1 72 -4.9 23.1
07:40 1029 30.39 858 25.34 -0.4 31.3 72 -4.9 23.1
07:45 1029 30.39 858 25.34 -0.4 31.3 71 -5 23.1
07:50 1029 30.39 858 25.34 -0.5 31.1 73 -4.8 23.3
07:55 1029 30.39 858 25.34 -0.9 30.4 73 -5 22.9
08:00 1029 30.39 858 25.34 -0.8 30.6 73 -5.1 22.8
08:05 1029 30.39 859 25.37 -0.7 30.7 72 -5.1 22.9
08:10 1030 30.42 859 25.37 -0.6 31 72 -5.1 22.9
08:15 1030 30.42 859 25.37 -0.2 31.7 70 -5.1 22.9
08:20 1030 30.42 859 25.37 0.5 32.8 67 -4.9 23.1
08:25 1030 30.42 859 25.37 1 33.7 65 -4.9 23.2
08:30 1030 30.42 859 25.37 1.2 34.1 63 -5.1 22.8
08:35 1030 30.42 859 25.37 1.5 34.8 62 -5 23
08:40 1030 30.42 859 25.37 1.8 35.2 61 -5 22.9
08:45 1030 30.42 859 25.37 1.6 34.9 63 -4.7 23.6
08:50 1030 30.42 860 25.4 2 35.6 62 -4.6 23.7
08:55 1030 30.42 860 25.4 1.9 35.5 63 -4.4 24.1
09:00 1031 30.45 860 25.4 2.3 36.1 61 -4.4 24
09:05 1031 30.45 860 25.4 2.7 36.8 58 -4.7 23.5
09:10 1031 30.45 860 25.4 2.5 36.5 63 -3.9 25
09:15 1031 30.45 860 25.4 2 35.6 65 -4 24.8
09:20 1031 30.45 860 25.4 1.7 35 66 -4 24.8
09:25 1031 30.45 860 25.4 1.9 35.5 64 -4.2 24.4
09:30 1031 30.45 860 25.4 2.3 36.1 64 -3.8 25.2
09:35 1031 30.45 860 25.4 2 35.6 66 -3.6 25.4
09:40 1031 30.45 860 25.4 2.1 35.8 64 -3.9 25
09:45 1031 30.45 860 25.4 2.9 37.2 60 -4.1 24.6
09:50 1031 30.45 860 25.4 3.4 38.2 58 -4.1 24.5
09:55 1031 30.45 860 25.4 4.1 39.3 58 -3.5 25.7
10:00 1031 30.45 860 25.4 3.7 38.6 61 -3.1 26.5
10:05 1031 30.45 860 25.4 4.1 39.3 60 -3 26.6
10:10 1031 30.45 860 25.4 4.8 40.6 54 -3.8 25.1
10:15 1031 30.45 860 25.4 4.8 40.6 54 -3.6 25.4
10:20 1031 30.45 860 25.4 4.7 40.5 55 -3.6 25.6
10:25 1031 30.45 860 25.4 5 41.1 54 -3.5 25.7
10:30 1031 30.45 860 25.4 5.8 42.5 51 -3.6 25.6
10:35 1031 30.45 860 25.4 6 42.9 49 -3.8 25.2
10:40 1031 30.45 860 25.4 6.4 43.6 48 -3.7 25.4
10:45 1031 30.45 860 25.4 6.3 43.4 49 -3.5 25.7
10:50 1031 30.45 860 25.4 6.5 43.7 48 -3.8 25.2
10:55 1031 30.45 860 25.4 6.6 43.9 48 -3.5 25.7
11:00 1031 30.45 860 25.4 7.1 44.8 47 -3.3 26
11:05 1031 30.45 860 25.4 7.4 45.3 46 -3.4 26
11:10 1031 30.45 860 25.4 7.1 44.9 51 -2.4 27.6
11:15 1031 30.45 860 25.4 6.7 44.1 45 -4.3 24.2
11:20 1031 30.45 860 25.4 7.6 45.6 42 -4.4 24.1
11:25 1031 30.45 860 25.4 7.6 45.7 38 -5.9 21.3
11:30 1031 30.45 860 25.4 7.1 44.7 44 -4.3 24.2
11:35 1031 30.45 860 25.4 7.2 44.9 41 -5.1 22.9
11:40 1031 30.45 860 25.4 7.8 46.1 40 -4.9 23.2
11:45 1031 30.45 860 25.4 7.6 45.6 41 -4.9 23.2
11:50 1031 30.45 860 25.4 8.1 46.5 41 -4.4 24.1
11:55 1031 30.45 860 25.4 8.1 46.5 40 -4.7 23.5
12:00 1031 30.45 860 25.4 8.3 46.9 38 -5.1 22.9
12:05 1031 30.45 860 25.4 8.5 47.2 40 -4.2 24.4
12:10 1031 30.45 860 25.4 8.2 46.7 39 -4.8 23.4
12:15 1030 30.42 860 25.4 8.8 47.8 38 -4.8 23.4
12:20 1030 30.42 860 25.4 8.7 47.7 37 -5.2 22.7
12:25 1030 30.42 860 25.4 8.7 47.7 36 -5.4 22.3
12:30 1030 30.42 860 25.4 9.2 48.5 33 -6.1 21
12:35 1030 30.42 860 25.4 9.1 48.3 33 -6.3 20.7
12:40 1030 30.42 860 25.4 9.3 48.7 33 -6 21.2
12:45 1030 30.42 859 25.37 9 48.3 32 -6.7 19.9
12:50 1030 30.42 859 25.37 10.1 50.2 31 -6.3 20.6
12:55 1030 30.42 859 25.37 10.3 50.5 31 -6.1 21
13:00 1030 30.42 859 25.37 10.2 50.4 29 -7 19.3
13:05 1030 30.42 859 25.37 10.9 51.7 27 -7.3 18.9
13:10 1030 30.42 859 25.37 10.8 51.5 28 -6.8 19.8
13:15 1030 30.42 859 25.37 10.9 51.6 28 -7 19.5
13:20 1030 30.42 859 25.37 11.2 52.2 26 -7.6 18.3
13:25 1030 30.42 859 25.37 11.7 53 25 -7.5 18.5
13:30 1030 30.42 859 25.37 11.2 52.1 27 -7.3 18.9
13:35 1030 30.42 859 25.37 10.7 51.3 28 -7.3 18.9
13:40 1030 30.42 859 25.37 10.7 51.3 26 -8 17.6
13:45 1030 30.42 859 25.37 11.3 52.3 24 -8.3 17
13:50 1030 30.42 859 25.37 11.9 53.4 27 -6.6 20.2
13:55 1030 30.42 859 25.37 12.2 54 24 -7.8 17.9
14:00 1030 30.42 859 25.37 12.7 54.9 23 -7.6 18.3
14:05 1030 30.42 859 25.37 12.9 55.2 23 -7.7 18.1
14:10 1030 30.42 859 25.37 12.6 54.7 21 -8.9 16
14:15 1030 30.42 859 25.37 12.8 55.1 22 -8.5 16.7
14:20 1030 30.42 859 25.37 12.4 54.4 22 -8.6 16.5
14:25 1030 30.42 859 25.37 11.4 52.5 19 -11.2 11.9
14:30 1030 30.42 859 25.37 12.1 53.7 20 -10.1 13.8
14:35 1030 30.42 859 25.37 12.3 54.2 20 -10.2 13.7
14:40 1029 30.39 859 25.37 12.8 55 20 -9.7 14.5
14:45 1029 30.39 859 25.37 12.6 54.7 18 -11.3 11.7
14:50 1029 30.39 859 25.37 13.2 55.7 17 -11.1 12
14:55 1029 30.39 859 25.37 13.8 56.9 16 -11.5 11.4
15:00 1029 30.39 859 25.37 13.7 56.6 15 -12.3 9.9
15:05 1029 30.39 859 25.37 13.4 56 17 -11.6 11.2
15:10 1029 30.39 858 25.34 13.3 55.9 17 -11.5 11.3
15:15 1029 30.39 858 25.34 14 57.1 15 -12.4 9.6
15:20 1029 30.39 859 25.37 13.5 56.3 14 -13.8 7.1
15:25 1029 30.39 859 25.37 12.1 53.8 16 -13.1 8.5
15:30 1029 30.39 859 25.37 13.1 55.6 16 -12.5 9.4
15:35 1029 30.39 858 25.34 13.5 56.2 15 -13 8.7
15:40 1029 30.39 858 25.34 13.2 55.8 14 -13.3 8
15:45 1029 30.39 858 25.34 12.5 54.6 17 -12.2 10.1
15:50 1029 30.39 858 25.34 12.9 55.1 18 -11.1 12
15:55 1029 30.39 858 25.34 12.8 55 17 -11.4 11.5
16:00 1029 30.39 859 25.37 13.2 55.8 16 -12.1 10.2
16:05 1029 30.39 859 25.37 13.7 56.6 15 -12.3 9.9
16:10 1029 30.39 859 25.37 13.5 56.3 17 -11.2 11.8
16:15 1029 30.39 859 25.37 12.7 54.9 17 -11.6 11.2
16:20 1029 30.39 858 25.34 12.7 54.9 17 -11.5 11.2
16:25 1029 30.39 859 25.37 13.2 55.7 17 -11.3 11.7
16:30 1029 30.39 859 25.37 13.6 56.4 17 -10.7 12.7
16:35 1029 30.39 859 25.37 13.9 57.1 17 -10.5 13.1
16:40 1029 30.39 859 25.37 13.9 56.9 17 -11 12.3
16:45 1029 30.39 859 25.37 12.8 55.1 18 -10.6 12.9
16:50 1029 30.39 859 25.37 13.2 55.7 17 -11.1 12
16:55 1029 30.39 859 25.37 13 55.4 20 -9.7 14.5
17:00 1029 30.39 859 25.37 13.2 55.8 19 -10.2 13.6
17:05 1029 30.39 859 25.37 13.6 56.5 19 -9.8 14.3
17:10 1030 30.42 859 25.37 13 55.4 19 -10.3 13.5
17:15 1030 30.42 859 25.37 12.6 54.7 19 -10.7 12.7
17:20 1029 30.39 859 25.37 12.6 54.6 19 -10.2 13.6
17:25 1029 30.39 859 25.37 12.5 54.4 20 -9.8 14.3
17:30 1029 30.39 859 25.37 12.7 54.9 21 -9.2 15.4
17:35 1029 30.39 858 25.34 12.7 54.8 20 -9.8 14.3
17:40 1029 30.39 858 25.34 12.2 53.9 21 -9.2 15.4
17:45 1029 30.39 858 25.34 11.6 52.8 22 -9.3 15.3
17:50 1029 30.39 858 25.34 11.6 52.9 22 -9.3 15.3
17:55 1029 30.39 858 25.34 11.7 53.1 21 -9.9 14.2
18:00 1029 30.39 858 25.34 11.6 52.8 21 -10.1 13.8
18:05 1029 30.39 858 25.34 11.2 52.2 21 -10.2 13.6
18:10 1029 30.39 858 25.34 11.1 51.9 24 -8.9 16.1
18:15 1029 30.39 858 25.34 11.2 52.1 22 -9.5 14.8
18:20 1029 30.39 858 25.34 11.2 52.1 23 -9 15.8
18:25 1029 30.39 859 25.37 11.4 52.4 24 -8.7 16.4
18:30 1029 30.39 859 25.37 11.4 52.5 24 -8.6 16.5
18:35 1029 30.39 859 25.37 11.2 52.2 24 -8.7 16.3
18:40 1029 30.39 859 25.37 10.4 50.7 32 -5.4 22.3
18:45 1029 30.39 859 25.37 9.1 48.4 38 -4.6 23.8
18:50 1030 30.42 859 25.37 8.4 47.2 38 -5.2 22.7
18:55 1030 30.42 859 25.37 8 46.3 41 -4.5 24
19:00 1030 30.42 859 25.37 7.7 45.9 42 -4.2 24.4
19:05 1030 30.42 859 25.37 7.7 45.9 43 -4.1 24.7
19:10 1030 30.42 859 25.37 7.5 45.5 43 -4.2 24.4
19:15 1030 30.42 859 25.37 7.4 45.2 44 -4.2 24.4
19:20 1030 30.42 859 25.37 7 44.5 46 -3.9 25
19:25 1029 30.39 859 25.37 6.7 44.1 44 -4.7 23.5
19:30 1029 30.39 859 25.37 6.8 44.3 44 -4.6 23.7
19:35 1029 30.39 859 25.37 6.8 44.3 44 -4.6 23.8
19:40 1030 30.42 859 25.37 6.9 44.5 43 -4.8 23.4
19:45 1030 30.42 859 25.37 6.9 44.4 43 -4.8 23.3
19:50 1030 30.42 859 25.37 6.6 43.9 43 -5 23
19:55 1030 30.42 859 25.37 6.3 43.4 45 -4.7 23.6
20:00 1030 30.42 859 25.37 6.1 43 45 -4.8 23.4
20:05 1030 30.42 859 25.37 6.1 43 45 -5 23.1
20:10 1030 30.42 859 25.37 6 42.9 46 -4.7 23.5
20:15 1030 30.42 859 25.37 6 42.9 43 -5.8 21.6
20:20 1030 30.42 859 25.37 6 42.8 43 -5.6 22
20:25 1030 30.42 859 25.37 5.7 42.3 44 -5.6 21.9
20:30 1030 30.42 859 25.37 5.8 42.4 43 -6 21.2
20:35 1030 30.42 859 25.37 5.7 42.2 42 -6.2 20.8
20:40 1030 30.42 859 25.37 5.8 42.4 41 -6.5 20.3
20:45 1030 30.42 859 25.37 5.9 42.6 39 -6.9 19.6
20:50 1030 30.42 859 25.37 6.2 43.1 39 -6.7 19.9
20:55 1030 30.42 859 25.37 6.3 43.3 37 -7.3 18.8
21:00 1030 30.42 859 25.37 6.2 43.1 40 -6.4 20.5
21:05 1030 30.42 859 25.37 6 42.8 39 -7 19.5
21:10 1030 30.42 859 25.37 6.3 43.4 36 -7.7 18.1
21:15 1030 30.42 859 25.37 6.1 43.1 35 -8.2 17.3
21:20 1030 30.42 859 25.37 6.3 43.3 37 -7.5 18.5
21:25 1030 30.42 859 25.37 6 42.7 36 -8.1 17.4
21:30 1030 30.42 859 25.37 6.1 43 35 -8.3 17
21:35 1030 30.42 859 25.37 6.4 43.4 36 -7.5 18.5
21:40 1030 30.42 859 25.37 6.2 43.1 36 -7.8 18
21:45 1030 30.42 859 25.37 6 42.9 36 -8 17.7
21:50 1030 30.42 859 25.37 6.1 42.9 36 -7.9 17.8
21:55 1030 30.42 859 25.37 6.2 43.2 38 -7.2 19
22:00 1030 30.42 859 25.37 5.8 42.4 40 -6.8 19.7
22:05 1030 30.42 859 25.37 5.5 41.8 41 -6.8 19.7
22:10 1030 30.42 859 25.37 5.3 41.5 41 -7 19.4
22:15 1030 30.42 859 25.37 5.4 41.7 39 -7.5 18.5
22:20 1030 30.42 859 25.37 5.4 41.7 40 -7.1 19.2
22:25 1030 30.42 859 25.37 5.3 41.5 39 -7.6 18.2
22:30 1030 30.42 859 25.37 5.2 41.4 38 -7.9 17.8
22:35 1030 30.42 859 25.37 5.3 41.5 38 -8 17.6
22:40 1030 30.42 859 25.37 5.3 41.6 39 -7.4 18.6
22:45 1030 30.42 859 25.37 5 41 42 -7 19.5
22:50 1030 30.42 859 25.37 4.8 40.7 41 -7.4 18.8
22:55 1030 30.42 859 25.37 5.1 41.1 39 -7.8 18
23:00 1030 30.42 859 25.37 5.2 41.3 39 -7.7 18.2
23:05 1030 30.42 859 25.37 5.1 41.1 39 -7.9 17.9
23:10 1030 30.42 859 25.37 4.9 40.7 41 -7.5 18.6
23:15 1030 30.42 859 25.37 4.5 40.1 41 -7.5 18.4
23:20 1030 30.42 859 25.37 4.3 39.7 42 -7.6 18.2
23:25 1030 30.42 859 25.37 4.3 39.7 40 -8 17.6
23:30 1030 30.42 859 25.37 4.5 40.1 39 -8.3 17.1
23:35 1030 30.42 859 25.37 4.7 40.5 37 -8.7 16.3
23:40 1030 30.42 859 25.37 5.1 41.2 37 -8.4 16.9
23:45 1030 30.42 859 25.37 5.2 41.4 36 -8.5 16.7
23:50 1030 30.42 859 25.37 5.2 41.4 39 -7.8 18
23:55 1030 30.42 859 25.37 5 41.1 40 -7.6 18.3
24:00 1030 30.42 859 25.37 4.8 40.7 41 -7.3 18.8